< < Back
Terminal Aerodrome Forecast


Current Version              Previous Versions:   1  2  3  4  5  6  7  8  9  

Terminal Aerodrome Forecast

262
FTUS42 KJAX 281800 AAA
TAFGNV
TAF AMD
KGNV 281847Z 2819/2918 27012G18KT P6SM VCTS SCT040CB SCT250
      TEMPO 2819/2822 VRB15G30KT 5SM TSRA BKN030CB
     FM290200 25008KT P6SM VCSH FEW015 BKN035 BKN250
     FM290700 27005KT 5SM BR VCSH SCT010 SCT250
     FM291300 29010KT P6SM VCSH SCT015 SCT080 SCT250=



Latest METAR

350
SAUS70 KWBC 290200 RRA
MTRGNV
METAR KGNV 290153Z 25013KT 10SM CLR 28/24 A2996 RMK AO2 SLP140
T02830244


USA.gov is the U.S. government's official web portal to all federal, state and local government web resources and services.